Terminal Aerodrome Forecast
Issued by NWS Austin/San Antonio, TX

Home | Current Version | Previous Version | Text Only | Print | Product List | Glossary On
Versions: 1 2 3 4 5 6 7 8 9 10 11 12 13 14 15 16 17 18 19 20
000
FTUS44 KEWX 020500
TAFAUS
TAF
KAUS 020531Z 0206/0312 04005KT P6SM FEW250
     FM021100 01005KT P6SM BKN015 BKN250
     FM021400 02008KT P6SM BKN025 BKN250
     FM021600 03009KT P6SM SCT050 BKN250
     FM031000 VRB03KT 6SM BR BKN013=

USA.gov is the U.S. government's official web portal to all federal, state and local government web resources and services.